Time;durP1;ratioP1;P1;durP2;ratioP2;P2;SDS_P1;SDS_P2;PMS_P1;PMS_P2;Temp;Humidity;BMP_temperature;BMP_pressure;BME280_temperature;BME280_humidity;BME280_pressure;Samples;Min_cycle;Max_cycle;Signal;HPM_P1;HPM_P2
2022/10/22 00:08:13;;;;;;;17.30;11.43;;;10.90;99.90;;;;;;20796655;28;20089;-61
2022/10/22 00:18:15;;;;;;;15.50;9.70;;;11.00;99.90;;;;;;21033414;28;20090;-61
2022/10/22 00:28:17;;;;;;;14.18;10.35;;;11.10;99.90;;;;;;21033763;28;20074;-65
2022/10/22 00:38:20;;;;;;;16.20;8.85;;;11.20;99.90;;;;;;21050599;28;20044;-63
2022/10/22 00:51:06;;;;;;;13.53;10.30;;;11.30;99.90;;;;;;20959573;27;20465;-63
2022/10/22 01:01:15;;;;;;;18.48;11.88;;;11.10;99.90;;;;;;20884423;28;20041;-62
2022/10/22 01:11:22;;;;;;;15.60;9.15;;;11.00;99.90;;;;;;20854565;27;20527;-62
2022/10/22 01:21:30;;;;;;;17.75;11.30;;;10.90;99.90;;;;;;20864087;27;20033;-62
2022/10/22 01:31:40;;;;;;;18.35;11.10;;;10.90;99.90;;;;;;20855574;27;20038;-65
2022/10/22 01:41:45;;;;;;;17.73;10.52;;;10.90;99.90;;;;;;20838459;28;20057;-64
2022/10/22 01:52:14;;;;;;;22.88;13.35;;;10.90;99.90;;;;;;20835235;28;20384;-65
2022/10/22 02:02:35;;;;;;;21.03;13.27;;;10.80;99.90;;;;;;20783161;28;20461;-64
2022/10/22 02:12:40;;;;;;;27.70;17.25;;;10.80;99.90;;;;;;20798349;28;20500;-66
2022/10/22 02:22:42;;;;;;;18.42;9.57;;;10.80;99.90;;;;;;20794023;28;20499;-65
2022/10/22 02:33:01;;;;;;;11.05;6.65;;;10.80;99.90;;;;;;20797094;28;20041;-64
2022/10/22 02:43:05;;;;;;;16.73;7.43;;;10.90;99.90;;;;;;20779672;28;20435;-67
2022/10/22 02:53:08;;;;;;;14.15;7.75;;;10.80;99.90;;;;;;20795080;28;20497;-66
2022/10/22 03:03:10;;;;;;;13.32;7.45;;;10.90;99.90;;;;;;20880818;27;20033;-68
2022/10/22 03:13:13;;;;;;;16.23;8.95;;;10.80;99.90;;;;;;20793470;28;20041;-64
2022/10/22 03:23:19;;;;;;;18.40;9.68;;;10.90;99.90;;;;;;20792019;28;20523;-63
2022/10/22 03:33:21;;;;;;;21.35;9.98;;;10.90;99.90;;;;;;20810069;28;20097;-64
2022/10/22 03:43:24;;;;;;;16.80;8.80;;;10.90;99.90;;;;;;20792000;28;20053;-63
2022/10/22 03:53:27;;;;;;;15.27;9.00;;;10.90;99.90;;;;;;20789278;28;20486;-63
2022/10/22 04:03:29;;;;;;;22.48;11.27;;;10.90;99.90;;;;;;20771016;28;20041;-63
2022/10/22 04:13:32;;;;;;;19.25;11.30;;;11.00;99.90;;;;;;20790433;28;20044;-66
2022/10/22 04:23:35;;;;;;;19.30;10.38;;;10.90;99.90;;;;;;20789095;28;20042;-65
2022/10/22 04:33:38;;;;;;;18.10;10.82;;;11.00;99.90;;;;;;20778503;28;20041;-65
2022/10/22 04:43:42;;;;;;;20.00;10.00;;;11.00;99.90;;;;;;20772391;28;20106;-64
2022/10/22 04:53:45;;;;;;;20.85;9.82;;;11.10;99.90;;;;;;20813433;28;20063;-64
2022/10/22 05:03:50;;;;;;;21.80;10.25;;;11.20;99.90;;;;;;20790398;28;20067;-65
2022/10/22 05:13:54;;;;;;;42.88;11.43;;;11.20;99.90;;;;;;20761473;28;20046;-64
2022/10/22 05:24:00;;;;;;;55.80;11.40;;;11.20;99.90;;;;;;20808472;28;20041;-66
2022/10/22 05:34:03;;;;;;;14.05;9.30;;;11.20;99.90;;;;;;20782212;28;20030;-65
2022/10/22 05:44:05;;;;;;;11.73;8.25;;;11.20;99.90;;;;;;20805807;28;20046;-64
2022/10/22 05:54:16;;;;;;;40.08;13.45;;;11.20;99.90;;;;;;20801339;28;20037;-63
2022/10/22 06:04:19;;;;;;;59.70;11.38;;;11.30;99.90;;;;;;20801105;28;20037;-64
2022/10/22 06:14:22;;;;;;;34.67;9.00;;;11.40;99.90;;;;;;20800777;28;20105;-67
2022/10/22 06:24:25;;;;;;;13.95;4.40;;;11.40;99.90;;;;;;20799997;28;20382;-66
2022/10/22 06:34:27;;;;;;;113.18;12.05;;;11.40;99.90;;;;;;20783238;28;20062;-62
2022/10/22 06:44:30;;;;;;;194.05;15.13;;;11.50;99.90;;;;;;20798661;28;20049;-62
2022/10/22 06:54:33;;;;;;;67.57;15.45;;;11.50;99.90;;;;;;20799022;28;20555;-66
2022/10/22 07:04:36;;;;;;;662.10;39.50;;;11.60;99.90;;;;;;20780987;28;20029;-61
2022/10/22 07:14:38;;;;;;;624.53;36.22;;;11.60;99.90;;;;;;20784673;28;20041;-61
2022/10/22 07:24:40;;;;;;;190.80;20.40;;;11.70;99.90;;;;;;20795955;28;20102;-66
2022/10/22 07:34:43;;;;;;;1018.33;51.78;;;11.70;99.90;;;;;;20794976;28;20033;-64
2022/10/22 07:44:45;;;;;;;1384.25;65.68;;;11.90;99.90;;;;;;20778536;28;20053;-64
2022/10/22 07:54:48;;;;;;;915.80;46.40;;;12.00;99.90;;;;;;20777245;28;20539;-67
2022/10/22 08:04:51;;;;;;;1217.80;57.35;;;12.00;99.90;;;;;;20793223;28;20106;-65
2022/10/22 08:14:53;;;;;;;15.95;9.13;;;12.10;99.90;;;;;;20776980;28;20029;-63
2022/10/22 08:24:56;;;;;;;16.73;6.35;;;12.70;99.90;;;;;;20792262;28;20090;-63
2022/10/22 08:34:58;;;;;;;16.98;8.10;;;13.40;99.90;;;;;;20775779;28;20030;-65
2022/10/22 08:45:28;;;;;;;18.52;8.40;;;13.90;99.90;;;;;;20758952;28;20099;-62
2022/10/22 08:55:35;;;;;;;21.38;9.10;;;14.10;99.90;;;;;;20807232;28;20029;-66
2022/10/22 09:06:17;;;;;;;15.43;7.30;;;13.90;99.90;;;;;;20798272;28;20086;-61
2022/10/22 09:16:35;;;;;;;20.92;8.80;;;13.60;99.90;;;;;;20787845;28;20074;-62
2022/10/22 09:26:40;;;;;;;19.15;8.70;;;13.80;99.90;;;;;;20787160;28;20470;-63
2022/10/22 09:36:43;;;;;;;20.65;7.50;;;13.80;99.90;;;;;;20803032;28;20038;-64
2022/10/22 09:46:45;;;;;;;26.10;9.50;;;14.10;99.90;;;;;;20802828;28;20054;-65
2022/10/22 09:56:55;;;;;;;36.15;14.88;;;13.70;99.90;;;;;;20801390;28;20033;-64
2022/10/22 10:06:58;;;;;;;31.10;15.07;;;13.20;99.90;;;;;;20784129;28;20090;-65
2022/10/22 10:17:30;;;;;;;44.53;21.80;;;13.10;99.90;;;;;;20799357;28;20102;-65
2022/10/22 10:27:55;;;;;;;30.63;12.65;;;12.90;99.90;;;;;;20802138;28;20102;-64
2022/10/22 10:38:16;;;;;;;29.33;12.52;;;13.00;99.90;;;;;;20798700;28;20045;-64
2022/10/22 10:48:51;;;;;;;9.50;1.00;;;13.00;99.90;;;;;;20781472;27;20099;-66
2022/10/22 10:59:12;;;;;;;2.05;0.10;;;12.00;99.90;;;;;;20788698;28;20102;-66
2022/10/22 11:09:26;;;;;;;1.95;0.10;;;10.90;99.90;;;;;;20801523;28;20089;-67
2022/10/22 11:19:59;;;;;;;1.83;0.20;;;10.40;99.90;;;;;;20796085;28;20320;-66
2022/10/22 11:30:10;;;;;;;0.70;0.00;;;10.30;99.90;;;;;;20878410;27;20029;-70
2022/10/22 11:40:43;;;;;;;0.20;0.00;;;10.20;99.90;;;;;;20796345;28;20106;-69
2022/10/22 11:51:00;;;;;;;0.20;0.00;;;10.10;99.90;;;;;;20872002;27;20045;-65
2022/10/22 12:01:06;;;;;;;0.00;0.00;;;10.00;99.90;;;;;;20820039;28;20557;-67
2022/10/22 12:11:46;;;;;;;0.03;0.00;;;9.90;99.90;;;;;;20773403;28;20037;-64
2022/10/22 12:22:02;;;;;;;0.10;0.08;;;9.90;99.90;;;;;;20770606;28;20435;-62
2022/10/22 12:32:04;;;;;;;1.38;0.00;;;9.80;99.90;;;;;;20788025;28;20098;-64
2022/10/22 12:42:13;;;;;;;0.57;0.10;;;9.90;99.90;;;;;;20774987;28;20050;-65
2022/10/22 12:52:22;;;;;;;1.20;0.10;;;9.90;99.90;;;;;;20810584;28;20098;-69
2022/10/22 13:02:28;;;;;;;2.83;0.60;;;10.10;99.90;;;;;;20792498;28;20078;-66
2022/10/22 13:12:36;;;;;;;3.25;1.38;;;10.30;99.90;;;;;;20807193;28;20094;-64
2022/10/22 13:22:41;;;;;;;5.15;2.20;;;10.80;99.90;;;;;;20789260;28;20041;-70
2022/10/22 13:33:00;;;;;;;6.22;2.88;;;11.90;99.90;;;;;;20784636;28;20041;-69
2022/10/22 13:43:03;;;;;;;5.38;2.58;;;11.90;99.90;;;;;;20809091;28;20034;-63
2022/10/22 13:53:15;;;;;;;3.67;1.05;;;12.30;99.90;;;;;;20793761;28;20086;-62
2022/10/22 14:03:21;;;;;;;2.78;1.20;;;12.00;99.90;;;;;;20801622;28;20034;-69
2022/10/22 14:13:25;;;;;;;6.47;3.10;;;11.80;99.90;;;;;;20785252;28;20041;-61
2022/10/22 14:23:30;;;;;;;7.03;3.70;;;12.10;99.90;;;;;;20799585;28;20033;-68
2022/10/22 14:33:33;;;;;;;6.40;3.30;;;12.60;99.90;;;;;;20799480;28;20033;-61
2022/10/22 14:43:35;;;;;;;7.07;2.90;;;12.90;99.90;;;;;;20803805;28;20057;-68
2022/10/22 14:53:38;;;;;;;5.78;2.50;;;12.90;99.90;;;;;;20794270;28;20371;-68
2022/10/22 15:03:41;;;;;;;2.63;1.63;;;13.00;99.90;;;;;;20792592;28;20029;-61
2022/10/22 15:13:47;;;;;;;10.90;2.63;;;13.00;99.90;;;;;;20835626;28;20086;-60
2022/10/22 15:23:49;;;;;;;7.60;2.42;;;12.80;99.90;;;;;;20795874;28;20050;-60
2022/10/22 15:33:52;;;;;;;6.63;2.42;;;12.70;99.90;;;;;;20880725;27;20045;-60
2022/10/22 15:43:55;;;;;;;6.97;2.67;;;12.20;99.90;;;;;;20790967;28;20381;-63
2022/10/22 15:53:58;;;;;;;5.95;1.95;;;12.10;99.90;;;;;;20794278;28;20037;-61
2022/10/22 16:04:04;;;;;;;9.05;3.22;;;11.70;99.90;;;;;;20793778;28;20076;-66
2022/10/22 16:14:09;;;;;;;8.15;2.92;;;11.30;99.90;;;;;;20790161;28;20097;-61
2022/10/22 16:24:12;;;;;;;7.85;3.15;;;10.90;99.90;;;;;;20796186;28;20082;-61
2022/10/22 16:34:14;;;;;;;7.20;3.00;;;10.50;99.90;;;;;;20791843;28;20030;-61
2022/10/22 16:44:17;;;;;;;5.88;2.67;;;10.40;99.90;;;;;;20800206;28;20587;-61
2022/10/22 16:54:20;;;;;;;6.03;2.63;;;10.10;99.90;;;;;;20810739;28;20411;-61
2022/10/22 17:04:23;;;;;;;6.97;2.58;;;10.00;99.90;;;;;;20791576;28;20033;-65
2022/10/22 17:14:27;;;;;;;5.18;2.83;;;10.00;99.90;;;;;;20790107;28;20547;-60
2022/10/22 17:24:29;;;;;;;8.48;3.22;;;9.90;99.90;;;;;;20790042;28;20034;-61
2022/10/22 17:34:32;;;;;;;4.00;2.67;;;9.60;99.90;;;;;;20808867;27;20057;-65
2022/10/22 17:44:36;;;;;;;4.63;2.30;;;9.70;99.90;;;;;;20871584;28;20050;-61
2022/10/22 17:54:39;;;;;;;5.32;2.35;;;9.50;99.90;;;;;;20801914;28;20048;-61
2022/10/22 18:04:42;;;;;;;8.07;2.90;;;9.20;99.90;;;;;;20848635;28;20082;-60
2022/10/22 18:14:46;;;;;;;6.05;2.50;;;9.10;99.90;;;;;;20788609;28;20045;-65
2022/10/22 18:24:48;;;;;;;8.00;2.90;;;9.00;99.90;;;;;;20885561;27;20082;-60
2022/10/22 18:34:51;;;;;;;5.28;2.78;;;8.90;99.90;;;;;;20782775;28;20391;-60
2022/10/22 18:44:53;;;;;;;6.38;3.03;;;8.90;99.90;;;;;;20880464;27;20106;-60
2022/10/22 18:54:56;;;;;;;4.75;2.60;;;8.90;99.90;;;;;;20798228;28;20046;-65
2022/10/22 19:04:59;;;;;;;5.95;3.00;;;9.00;99.90;;;;;;20781161;28;20033;-64
2022/10/22 19:15:03;;;;;;;6.68;2.45;;;9.10;99.90;;;;;;20797097;28;20395;-61
2022/10/22 19:25:06;;;;;;;7.32;2.60;;;9.20;99.90;;;;;;20796128;28;20070;-65
2022/10/22 19:35:09;;;;;;;4.43;2.58;;;9.10;99.90;;;;;;20779460;28;20034;-61
2022/10/22 19:45:12;;;;;;;12.02;3.05;;;8.90;99.90;;;;;;20763108;28;20798;-64
2022/10/22 19:55:15;;;;;;;10.98;3.08;;;8.90;99.90;;;;;;20777408;28;20045;-65
2022/10/22 20:05:17;;;;;;;6.10;3.25;;;9.40;99.90;;;;;;20793550;28;20037;-65
2022/10/22 20:15:21;;;;;;;8.82;2.85;;;9.40;99.90;;;;;;20792955;28;20045;-62
2022/10/22 20:25:23;;;;;;;10.18;3.03;;;9.40;99.90;;;;;;20810127;28;20040;-61
2022/10/22 20:35:26;;;;;;;8.25;4.28;;;9.60;99.90;;;;;;20775660;28;20033;-61
2022/10/22 20:45:29;;;;;;;7.72;3.75;;;9.80;99.90;;;;;;20775096;28;20054;-65
2022/10/22 20:55:31;;;;;;;8.40;3.28;;;10.20;99.90;;;;;;20794984;28;20038;-65
2022/10/22 21:05:34;;;;;;;5.72;3.10;;;11.00;99.90;;;;;;20866521;28;20029;-61
2022/10/22 21:15:38;;;;;;;10.27;3.40;;;11.10;99.90;;;;;;20804658;28;20502;-61
2022/10/22 21:25:51;;;;;;;7.88;3.80;;;10.90;99.90;;;;;;20807698;28;20122;-64
2022/10/22 21:35:55;;;;;;;9.65;3.80;;;10.60;99.90;;;;;;20803157;28;20341;-64
2022/10/22 21:46:10;;;;;;;9.20;4.00;;;10.50;99.90;;;;;;20790495;28;20049;-61
2022/10/22 21:56:22;;;;;;;4.88;2.53;;;10.50;99.90;;;;;;20805141;28;20079;-61
2022/10/22 22:06:26;;;;;;;8.10;2.72;;;10.60;99.90;;;;;;20802006;28;20034;-61
2022/10/22 22:16:32;;;;;;;10.40;3.13;;;10.40;99.90;;;;;;20799897;28;20041;-61
2022/10/22 22:26:36;;;;;;;2.92;2.00;;;10.20;99.90;;;;;;20868522;28;20086;-63
2022/10/22 22:36:42;;;;;;;9.23;3.53;;;10.00;99.90;;;;;;20799355;28;20086;-64
2022/10/22 22:46:45;;;;;;;5.30;3.10;;;10.10;99.90;;;;;;20884320;27;20094;-63
2022/10/22 22:56:49;;;;;;;7.95;3.60;;;10.10;99.90;;;;;;20813662;28;20563;-63
2022/10/22 23:06:52;;;;;;;10.20;3.70;;;10.30;99.90;;;;;;20798731;28;20419;-64
2022/10/22 23:16:55;;;;;;;6.35;3.05;;;10.50;99.90;;;;;;20879400;28;20480;-62
2022/10/22 23:27:01;;;;;;;11.60;3.20;;;10.60;99.90;;;;;;20871798;28;20037;-61
2022/10/22 23:37:03;;;;;;;10.00;3.03;;;10.50;99.90;;;;;;20870266;28;20105;-63
2022/10/22 23:47:05;;;;;;;6.93;3.75;;;10.50;99.90;;;;;;20856543;27;20095;-62
2022/10/22 23:57:08;;;;;;;7.88;3.47;;;10.50;99.90;;;;;;20799703;28;20094;-61
